Time;durP1;ratioP1;P1;durP2;ratioP2;P2;SDS_P1;SDS_P2;PMS_P1;PMS_P2;Temp;Humidity;BMP_temperature;BMP_pressure;BME280_temperature;BME280_humidity;BME280_pressure;Samples;Min_cycle;Max_cycle;Signal;HPM_P1;HPM_P2
2021/07/27 00:02:19;;;;;;;5.97;3.40;;;16.10;99.90;;;;;;4973974;28;20027;-75
2021/07/27 00:04:46;;;;;;;5.78;3.58;;;16.10;99.70;;;;;;4974059;28;20478;-75
2021/07/27 00:07:14;;;;;;;4.68;3.25;;;16.10;99.50;;;;;;4974890;28;20095;-75
2021/07/27 00:09:41;;;;;;;6.95;3.53;;;16.20;99.80;;;;;;4973919;28;20482;-74
2021/07/27 00:12:08;;;;;;;7.32;3.40;;;16.30;99.90;;;;;;4974939;28;20136;-74
2021/07/27 00:14:36;;;;;;;8.65;3.50;;;16.30;99.70;;;;;;4974911;28;20037;-73
2021/07/27 00:17:03;;;;;;;6.18;3.97;;;16.40;99.70;;;;;;4975034;28;20023;-75
2021/07/27 00:19:31;;;;;;;7.18;3.53;;;16.50;99.30;;;;;;4972902;28;20029;-73
2021/07/27 00:21:58;;;;;;;7.90;3.40;;;16.60;99.30;;;;;;4974922;28;20051;-74
2021/07/27 00:24:26;;;;;;;5.35;4.25;;;16.60;99.40;;;;;;4974488;28;20062;-76
2021/07/27 00:26:55;;;;;;;6.22;3.70;;;16.70;99.30;;;;;;4973556;28;20062;-75
2021/07/27 00:29:25;;;;;;;6.70;3.47;;;16.80;99.00;;;;;;4973552;28;20483;-73
2021/07/27 00:31:52;;;;;;;7.47;3.17;;;17.00;99.10;;;;;;4973622;28;20035;-73
2021/07/27 00:34:19;;;;;;;5.72;3.30;;;17.10;98.90;;;;;;4974671;28;20435;-72
2021/07/27 00:36:47;;;;;;;5.03;2.95;;;17.30;97.70;;;;;;4973608;28;20110;-74
2021/07/27 00:39:14;;;;;;;5.68;3.20;;;17.40;96.70;;;;;;4973332;28;20031;-74
2021/07/27 00:41:41;;;;;;;5.78;2.92;;;17.40;95.90;;;;;;4974633;28;20058;-74
2021/07/27 00:44:09;;;;;;;4.88;2.95;;;17.50;95.40;;;;;;4973341;28;20023;-73
2021/07/27 00:46:36;;;;;;;4.70;3.05;;;17.60;94.70;;;;;;4974506;28;20038;-74
2021/07/27 00:49:03;;;;;;;4.10;2.95;;;17.70;93.50;;;;;;4974548;28;20030;-74
2021/07/27 00:51:31;;;;;;;5.57;2.88;;;17.70;93.40;;;;;;4974479;28;20026;-73
2021/07/27 00:53:59;;;;;;;7.75;3.00;;;17.80;93.70;;;;;;4973023;28;20117;-76
2021/07/27 00:56:26;;;;;;;5.05;2.90;;;17.90;93.40;;;;;;4974540;28;20103;-76
2021/07/27 00:58:54;;;;;;;5.78;2.60;;;18.00;93.60;;;;;;4974447;28;20054;-76
2021/07/27 01:01:21;;;;;;;5.72;2.78;;;18.00;92.90;;;;;;4974719;28;20037;-76
2021/07/27 01:03:49;;;;;;;3.15;2.45;;;18.10;92.70;;;;;;4974362;28;20034;-74
2021/07/27 01:06:16;;;;;;;4.90;2.65;;;18.10;92.10;;;;;;4974238;28;20106;-75
2021/07/27 01:08:45;;;;;;;3.25;2.28;;;18.20;91.70;;;;;;4974030;28;20086;-75
2021/07/27 01:11:23;;;;;;;5.60;2.30;;;18.20;91.70;;;;;;4972885;28;20509;-74
2021/07/27 01:13:50;;;;;;;6.30;2.50;;;18.20;91.90;;;;;;4974179;28;20504;-75
2021/07/27 01:16:21;;;;;;;4.60;2.40;;;18.30;91.70;;;;;;4974364;28;20027;-75
2021/07/27 01:18:59;;;;;;;;;;;18.30;91.40;;;;;;4974751;28;20102;-74
2021/07/27 01:38:21;;;;;;;5.53;2.65;;;18.70;90.70;;;;;;4978032;28;20069;-74
2021/07/27 01:41:00;;;;;;;3.50;2.60;;;18.80;90.40;;;;;;4978075;28;20019;-74
2021/07/27 01:43:29;;;;;;;6.53;2.47;;;18.70;90.30;;;;;;4976672;28;20461;-74
2021/07/27 01:45:57;;;;;;;3.95;2.35;;;18.70;90.30;;;;;;4977782;28;20039;-75
2021/07/27 01:48:29;;;;;;;4.30;2.10;;;18.80;90.30;;;;;;4976450;28;20093;-74
2021/07/27 01:50:59;;;;;;;5.82;2.88;;;18.80;90.40;;;;;;4977724;28;20479;-74
2021/07/27 01:53:44;;;;;;;3.78;2.63;;;18.80;89.60;;;;;;4977673;28;20031;-74
2021/07/27 01:56:14;;;;;;;4.63;2.67;;;18.80;90.00;;;;;;4977539;28;20033;-75
2021/07/27 01:58:42;;;;;;;5.13;2.85;;;18.80;89.60;;;;;;4976371;28;20506;-74
2021/07/27 02:01:11;;;;;;;5.32;2.97;;;18.80;89.70;;;;;;4977526;28;20065;-74
2021/07/27 02:03:38;;;;;;;5.45;2.63;;;18.80;89.70;;;;;;4977683;28;20129;-74
2021/07/27 02:06:06;;;;;;;4.45;2.45;;;18.80;89.50;;;;;;4977483;28;20058;-74
2021/07/27 02:08:33;;;;;;;5.63;2.78;;;18.70;90.00;;;;;;4976234;28;20034;-74
2021/07/27 02:11:03;;;;;;;6.05;2.63;;;18.80;90.00;;;;;;4975924;28;20400;-74
2021/07/27 02:13:44;;;;;;;5.38;2.97;;;18.80;89.80;;;;;;4977144;28;20491;-73
2021/07/27 02:16:12;;;;;;;3.95;2.67;;;18.90;90.30;;;;;;4977405;28;20022;-75
2021/07/27 02:18:39;;;;;;;6.18;2.70;;;19.00;89.00;;;;;;4977216;28;20023;-75
2021/07/27 02:21:07;;;;;;;4.82;2.80;;;19.10;89.60;;;;;;4977379;28;20027;-74
2021/07/27 02:23:34;;;;;;;5.80;2.80;;;19.10;89.80;;;;;;4975884;28;20446;-74
2021/07/27 02:26:02;;;;;;;5.60;2.65;;;19.20;89.20;;;;;;4977147;28;20022;-74
2021/07/27 02:28:31;;;;;;;5.65;2.97;;;19.20;90.10;;;;;;4975867;28;20031;-75
2021/07/27 02:31:01;;;;;;;5.13;2.60;;;19.10;90.00;;;;;;4975926;28;20104;-75
2021/07/27 02:33:29;;;;;;;5.70;2.77;;;19.20;90.20;;;;;;4975676;28;20072;-75
2021/07/27 02:35:56;;;;;;;4.10;2.40;;;19.20;90.10;;;;;;4975772;28;20034;-75
2021/07/27 02:38:24;;;;;;;7.88;2.58;;;19.20;90.60;;;;;;4977102;28;20116;-75
2021/07/27 02:40:51;;;;;;;4.07;2.50;;;19.20;89.50;;;;;;4976266;28;20046;-74
2021/07/27 02:43:18;;;;;;;4.70;2.63;;;19.20;90.10;;;;;;4976954;28;20431;-75
2021/07/27 02:45:46;;;;;;;4.85;2.47;;;19.10;90.20;;;;;;4976852;28;20023;-76
2021/07/27 02:48:13;;;;;;;6.13;2.70;;;19.10;89.40;;;;;;4975441;28;20517;-74
2021/07/27 02:50:40;;;;;;;5.78;2.92;;;19.10;90.00;;;;;;4976714;28;20027;-75
2021/07/27 02:53:10;;;;;;;5.30;2.90;;;19.10;90.20;;;;;;4975254;28;20436;-73
2021/07/27 02:55:38;;;;;;;5.07;2.80;;;19.10;90.10;;;;;;4976645;28;20023;-74
2021/07/27 02:58:11;;;;;;;5.10;2.80;;;19.10;90.00;;;;;;4975260;28;20092;-74
2021/07/27 03:00:38;;;;;;;4.47;2.42;;;19.10;90.70;;;;;;4976437;28;20022;-74
2021/07/27 03:03:06;;;;;;;6.05;3.28;;;19.20;90.80;;;;;;4975039;28;20041;-75
2021/07/27 03:05:33;;;;;;;5.13;2.83;;;19.20;90.70;;;;;;4975180;28;20026;-75
2021/07/27 03:08:11;;;;;;;3.42;2.40;;;19.30;90.90;;;;;;4975170;28;20394;-75
2021/07/27 03:10:38;;;;;;;5.72;2.88;;;19.30;90.80;;;;;;4976553;28;20027;-75
2021/07/27 03:13:08;;;;;;;4.72;2.90;;;19.30;90.40;;;;;;4976182;28;20043;-75
2021/07/27 03:15:35;;;;;;;4.90;2.67;;;19.30;91.00;;;;;;4976295;28;20044;-75
2021/07/27 03:18:03;;;;;;;7.28;3.00;;;19.30;90.60;;;;;;4976314;28;20106;-75
2021/07/27 03:20:32;;;;;;;4.55;2.67;;;19.40;91.50;;;;;;4976279;28;20022;-74
2021/07/27 03:22:59;;;;;;;9.57;3.53;;;19.40;90.70;;;;;;4974882;28;20027;-75
2021/07/27 03:25:27;;;;;;;5.85;2.85;;;19.30;90.10;;;;;;4976223;28;20073;-75
2021/07/27 03:27:54;;;;;;;5.80;2.72;;;19.20;90.50;;;;;;4974830;28;20089;-75
2021/07/27 03:30:22;;;;;;;5.97;2.70;;;19.20;90.60;;;;;;4976072;28;20082;-75
2021/07/27 03:32:50;;;;;;;5.68;2.85;;;19.30;90.30;;;;;;4975971;28;20388;-75
2021/07/27 03:35:21;;;;;;;3.60;2.80;;;19.40;90.60;;;;;;4975909;28;20030;-75
2021/07/27 03:37:47;;;;;;;;;;;19.60;90.40;;;;;;4976357;28;20150;-75
2021/07/27 03:40:15;;;;;;;6.22;2.90;;;19.60;91.00;;;;;;4975827;28;19906;-75
2021/07/27 03:42:43;;;;;;;5.97;3.00;;;19.70;90.40;;;;;;4976100;28;20026;-76
2021/07/27 03:45:11;;;;;;;7.43;3.40;;;19.70;90.40;;;;;;4974688;28;20027;-76
2021/07/27 03:47:39;;;;;;;3.35;2.75;;;19.80;91.00;;;;;;4974465;28;20546;-75
2021/07/27 03:50:09;;;;;;;5.15;2.65;;;19.70;90.40;;;;;;4974513;28;20030;-76
2021/07/27 03:52:36;;;;;;;;;;;19.60;90.60;;;;;;4975432;28;20027;-76
2021/07/27 03:55:03;;;;;;;4.38;2.95;;;19.50;90.90;;;;;;4975300;28;19918;-75
2021/07/27 03:57:31;;;;;;;4.85;2.67;;;19.50;91.10;;;;;;4975507;28;20471;-75
2021/07/27 03:59:58;;;;;;;5.95;3.22;;;19.60;91.10;;;;;;4975526;28;20023;-75
2021/07/27 04:02:26;;;;;;;4.32;2.83;;;19.60;91.50;;;;;;4975407;28;20023;-75
2021/07/27 04:04:53;;;;;;;5.35;3.00;;;19.60;90.20;;;;;;4974034;28;20034;-75
2021/07/27 04:07:21;;;;;;;5.40;2.90;;;19.70;88.40;;;;;;4973924;28;20507;-74
2021/07/27 04:09:48;;;;;;;5.30;3.10;;;19.70;88.10;;;;;;4974948;28;20022;-74
2021/07/27 04:12:15;;;;;;;4.70;2.90;;;19.70;88.90;;;;;;4975005;28;20054;-75
2021/07/27 04:14:43;;;;;;;4.25;2.50;;;19.60;88.30;;;;;;4975096;28;20031;-75
2021/07/27 04:17:10;;;;;;;3.45;2.30;;;19.60;88.80;;;;;;4975573;28;20018;-74
2021/07/27 04:19:37;;;;;;;6.95;3.00;;;19.40;87.90;;;;;;4975152;28;20027;-75
2021/07/27 04:22:05;;;;;;;7.63;3.13;;;19.40;88.80;;;;;;4975188;28;20455;-75
2021/07/27 04:24:32;;;;;;;5.20;2.90;;;19.40;89.80;;;;;;4973839;28;20031;-75
2021/07/27 04:26:59;;;;;;;7.72;2.70;;;19.50;89.70;;;;;;4975191;28;20486;-75
2021/07/27 04:29:27;;;;;;;6.47;2.78;;;19.50;90.00;;;;;;4975256;28;20027;-74
2021/07/27 04:31:54;;;;;;;6.10;2.65;;;19.60;90.20;;;;;;4974978;28;20392;-75
2021/07/27 04:34:21;;;;;;;5.18;2.53;;;19.80;90.30;;;;;;4973706;28;20035;-74
2021/07/27 04:36:52;;;;;;;6.47;3.00;;;19.80;89.30;;;;;;4973443;28;20031;-75
2021/07/27 04:39:19;;;;;;;3.78;2.63;;;19.70;88.90;;;;;;4974800;28;20141;-75
2021/07/27 04:41:47;;;;;;;5.57;3.25;;;19.60;89.70;;;;;;4974729;28;20019;-76
2021/07/27 04:44:14;;;;;;;5.32;2.83;;;19.60;89.10;;;;;;4974789;28;20423;-75
2021/07/27 04:46:42;;;;;;;4.43;2.38;;;19.50;90.00;;;;;;4974876;28;20444;-74
2021/07/27 04:49:09;;;;;;;4.57;2.65;;;19.40;90.70;;;;;;4973394;28;20037;-74
2021/07/27 04:51:37;;;;;;;5.05;2.80;;;19.30;89.80;;;;;;4973333;28;20026;-74
2021/07/27 04:54:05;;;;;;;4.55;2.30;;;19.30;90.40;;;;;;4974531;28;20090;-74
2021/07/27 04:56:36;;;;;;;2.92;2.13;;;19.30;89.70;;;;;;4974524;28;20074;-74
2021/07/27 04:59:03;;;;;;;4.25;2.40;;;19.30;90.60;;;;;;4974451;28;20022;-74
2021/07/27 05:01:30;;;;;;;4.63;2.90;;;19.30;90.70;;;;;;4974350;28;20019;-74
2021/07/27 05:03:58;;;;;;;4.03;2.50;;;19.20;90.40;;;;;;4974001;28;20027;-75
2021/07/27 05:06:25;;;;;;;4.55;2.55;;;19.10;90.60;;;;;;4973144;28;20491;-74
2021/07/27 05:08:53;;;;;;;5.05;2.50;;;19.10;90.60;;;;;;4974385;28;20037;-74
2021/07/27 05:11:20;;;;;;;5.22;2.72;;;19.10;90.60;;;;;;4972796;28;20487;-74
2021/07/27 05:13:47;;;;;;;3.92;2.60;;;19.10;91.00;;;;;;4972782;28;20093;-74
2021/07/27 05:16:19;;;;;;;3.85;2.40;;;19.20;90.40;;;;;;4972877;28;20092;-74
2021/07/27 05:18:47;;;;;;;6.75;2.85;;;19.20;90.40;;;;;;4972885;28;20030;-75
2021/07/27 05:21:18;;;;;;;4.78;3.45;;;19.20;90.40;;;;;;4972965;28;20099;-74
2021/07/27 05:23:46;;;;;;;5.20;2.40;;;19.30;90.50;;;;;;4974428;28;20463;-74
2021/07/27 05:26:13;;;;;;;4.35;2.42;;;19.30;90.40;;;;;;4972963;28;20031;-75
2021/07/27 05:28:40;;;;;;;4.32;2.75;;;19.30;90.30;;;;;;4974160;28;20027;-74
2021/07/27 05:31:09;;;;;;;5.20;2.63;;;19.30;90.20;;;;;;4972932;28;20054;-76
2021/07/27 05:33:36;;;;;;;5.00;2.70;;;19.20;90.70;;;;;;4974215;28;20027;-74
2021/07/27 05:36:06;;;;;;;4.93;2.20;;;19.30;91.50;;;;;;4973971;28;20023;-73
2021/07/27 05:38:33;;;;;;;4.70;2.60;;;19.30;90.50;;;;;;4974150;28;20073;-73
2021/07/27 05:41:00;;;;;;;3.40;2.40;;;19.30;90.90;;;;;;4974296;28;20022;-74
2021/07/27 05:43:28;;;;;;;3.88;2.83;;;19.30;90.10;;;;;;4974107;28;20023;-73
2021/07/27 05:45:57;;;;;;;5.30;2.95;;;19.30;89.90;;;;;;4974220;28;20502;-73
2021/07/27 05:48:25;;;;;;;4.53;2.30;;;19.30;89.40;;;;;;4972857;28;20054;-73
2021/07/27 05:50:52;;;;;;;3.67;2.58;;;19.30;89.90;;;;;;4974136;28;20019;-74
2021/07/27 05:53:19;;;;;;;4.55;2.55;;;19.30;90.50;;;;;;4974082;28;20045;-72
2021/07/27 05:55:47;;;;;;;3.55;2.60;;;19.30;90.20;;;;;;4975486;28;20479;-73
2021/07/27 05:58:14;;;;;;;4.03;2.80;;;19.30;89.90;;;;;;4974347;28;20027;-74
2021/07/27 06:00:41;;;;;;;6.03;2.40;;;19.30;89.70;;;;;;4974319;28;20019;-73
2021/07/27 06:03:08;;;;;;;4.00;2.28;;;19.30;89.50;;;;;;4972772;28;20035;-75
2021/07/27 06:05:36;;;;;;;3.05;2.55;;;19.30;90.20;;;;;;4974208;28;20019;-74
2021/07/27 06:08:03;;;;;;;3.45;2.70;;;19.20;89.50;;;;;;4974008;28;20475;-73
2021/07/27 06:10:31;;;;;;;4.03;2.30;;;19.10;89.20;;;;;;4973903;28;20484;-75
2021/07/27 06:12:58;;;;;;;4.28;2.42;;;19.10;90.00;;;;;;4973992;28;20042;-74
2021/07/27 06:15:25;;;;;;;5.15;3.30;;;19.00;90.30;;;;;;4974160;28;20495;-75
2021/07/27 06:17:53;;;;;;;5.82;3.10;;;19.00;90.00;;;;;;4976998;28;20029;-73
2021/07/27 06:20:20;;;;;;;3.83;2.60;;;18.90;90.50;;;;;;4977295;28;20023;-73
2021/07/27 06:22:47;;;;;;;4.18;2.40;;;18.80;90.80;;;;;;4976005;28;20030;-71
2021/07/27 06:25:15;;;;;;;6.00;2.85;;;18.80;91.10;;;;;;4976312;28;20058;-71
2021/07/27 06:27:42;;;;;;;4.60;2.50;;;18.70;90.60;;;;;;4977056;28;20511;-71
2021/07/27 06:30:12;;;;;;;3.38;2.10;;;18.60;90.60;;;;;;4977553;28;20019;-71
2021/07/27 06:32:39;;;;;;;5.78;2.40;;;18.60;90.90;;;;;;4976947;28;20033;-70
2021/07/27 06:35:07;;;;;;;4.60;2.10;;;18.50;91.20;;;;;;4976753;28;20019;-68
2021/07/27 06:37:34;;;;;;;4.38;2.20;;;18.40;90.50;;;;;;4976928;28;20031;-71
2021/07/27 06:40:03;;;;;;;3.47;2.40;;;18.40;90.40;;;;;;4976853;28;20023;-71
2021/07/27 06:42:30;;;;;;;2.97;2.20;;;18.30;90.60;;;;;;4976701;28;20063;-72
2021/07/27 06:44:58;;;;;;;5.60;2.25;;;18.30;89.90;;;;;;4976857;28;20031;-71
2021/07/27 06:47:25;;;;;;;3.58;2.53;;;18.20;89.80;;;;;;4975302;28;20023;-71
2021/07/27 06:49:52;;;;;;;3.20;2.45;;;18.20;90.00;;;;;;4976820;28;20206;-71
2021/07/27 06:52:23;;;;;;;3.92;2.50;;;18.10;90.20;;;;;;4976670;28;20033;-72
2021/07/27 06:54:50;;;;;;;3.70;2.28;;;18.00;90.10;;;;;;4976878;28;20027;-72
2021/07/27 06:57:18;;;;;;;3.72;2.50;;;17.90;90.30;;;;;;4975280;28;20053;-73
2021/07/27 06:59:49;;;;;;;4.25;2.47;;;17.90;90.20;;;;;;4976634;28;20105;-72
2021/07/27 07:02:20;;;;;;;3.63;2.30;;;17.70;90.80;;;;;;4976703;28;20427;-71
2021/07/27 07:04:59;;;;;;;5.05;2.60;;;17.60;90.90;;;;;;4974483;28;20122;-72
2021/07/27 07:07:27;;;;;;;2.97;2.53;;;17.40;91.60;;;;;;4976238;28;20031;-71
2021/07/27 07:09:58;;;;;;;4.72;2.80;;;17.30;92.40;;;;;;4974643;28;20027;-72
2021/07/27 07:12:26;;;;;;;3.67;2.58;;;17.20;93.00;;;;;;4976014;28;20054;-73
2021/07/27 07:14:57;;;;;;;4.68;2.60;;;17.00;93.10;;;;;;4976158;28;20045;-73
2021/07/27 07:17:37;;;;;;;4.57;2.53;;;17.00;93.30;;;;;;4974663;28;20471;-75
2021/07/27 07:20:05;;;;;;;3.78;2.72;;;16.80;93.80;;;;;;4976460;28;20022;-75
2021/07/27 07:22:36;;;;;;;5.18;2.58;;;16.70;94.30;;;;;;4974635;28;20026;-73
2021/07/27 07:25:07;;;;;;;5.22;2.75;;;16.60;94.70;;;;;;4976189;28;20510;-74
2021/07/27 07:27:46;;;;;;;4.78;2.80;;;16.50;95.00;;;;;;4974448;28;20038;-74
2021/07/27 07:30:18;;;;;;;6.40;3.15;;;16.50;95.60;;;;;;4976237;28;20372;-73
2021/07/27 07:32:47;;;;;;;5.20;2.85;;;16.40;95.70;;;;;;4976016;28;20106;-74
2021/07/27 07:35:23;;;;;;;7.22;3.20;;;16.20;95.90;;;;;;4975761;28;20034;-74
2021/07/27 07:37:56;;;;;;;3.65;2.97;;;16.20;96.30;;;;;;4975876;28;20101;-73
2021/07/27 07:40:24;;;;;;;4.97;2.42;;;16.10;96.50;;;;;;4974615;28;20027;-73
2021/07/27 07:43:02;;;;;;;5.30;2.67;;;16.00;96.60;;;;;;4974201;28;20031;-73
2021/07/27 07:45:31;;;;;;;3.97;2.63;;;15.90;96.80;;;;;;4975723;28;20089;-73
2021/07/27 07:48:01;;;;;;;5.60;3.17;;;15.80;96.90;;;;;;4976672;28;20031;-73
2021/07/27 07:50:30;;;;;;;4.82;2.70;;;15.80;97.10;;;;;;4975304;28;20484;-74
2021/07/27 07:53:13;;;;;;;6.78;2.80;;;15.80;97.20;;;;;;4974748;28;20035;-73
2021/07/27 07:55:49;;;;;;;7.03;3.25;;;15.80;97.10;;;;;;4977246;28;20029;-73
2021/07/27 07:58:17;;;;;;;5.20;2.97;;;15.70;97.30;;;;;;4976982;28;20030;-73
2021/07/27 08:00:47;;;;;;;4.22;3.03;;;15.60;97.50;;;;;;4976721;28;20204;-73
2021/07/27 08:03:32;;;;;;;5.72;3.22;;;15.60;97.60;;;;;;4976780;28;20027;-72
2021/07/27 08:06:04;;;;;;;5.43;3.25;;;15.60;98.00;;;;;;4977117;28;20033;-73
2021/07/27 08:08:39;;;;;;;6.65;3.38;;;15.50;97.90;;;;;;4975706;28;20509;-73
2021/07/27 08:11:11;;;;;;;6.85;3.35;;;15.50;97.80;;;;;;4975336;28;20102;-73
2021/07/27 08:13:42;;;;;;;6.35;3.10;;;15.40;98.00;;;;;;4975118;28;20050;-73
2021/07/27 08:16:13;;;;;;;4.13;3.10;;;15.40;98.10;;;;;;4975078;28;20023;-74
2021/07/27 08:18:41;;;;;;;4.22;2.58;;;15.40;98.10;;;;;;4975076;28;20031;-73
2021/07/27 08:21:09;;;;;;;6.38;2.70;;;15.30;98.20;;;;;;4975126;28;20063;-74
2021/07/27 08:23:49;;;;;;;6.38;2.83;;;15.30;98.10;;;;;;4973636;28;20479;-73
2021/07/27 08:26:17;;;;;;;4.60;3.10;;;15.30;98.20;;;;;;4973746;28;20027;-73
2021/07/27 08:28:48;;;;;;;5.55;3.08;;;15.30;98.20;;;;;;4974944;28;20026;-72
2021/07/27 08:31:17;;;;;;;4.80;2.55;;;15.20;98.50;;;;;;4974904;28;20475;-73
2021/07/27 08:33:44;;;;;;;5.57;3.72;;;15.10;98.50;;;;;;4974613;28;20045;-74
2021/07/27 08:36:11;;;;;;;3.90;2.83;;;15.10;98.80;;;;;;4974688;28;20391;-74
2021/07/27 08:38:39;;;;;;;6.05;3.30;;;15.00;98.60;;;;;;4974468;28;20022;-73
2021/07/27 08:41:09;;;;;;;6.65;3.10;;;15.00;98.80;;;;;;4974376;28;20030;-73
2021/07/27 08:43:36;;;;;;;7.63;3.30;;;14.90;99.80;;;;;;4973225;28;20514;-73
2021/07/27 08:46:03;;;;;;;4.40;3.03;;;14.90;99.30;;;;;;4974639;28;20265;-73
2021/07/27 08:48:32;;;;;;;4.57;3.00;;;14.80;99.10;;;;;;4974607;28;20030;-75
2021/07/27 08:50:59;;;;;;;5.53;3.22;;;14.80;99.20;;;;;;4974370;28;20023;-72
2021/07/27 08:53:27;;;;;;;4.32;3.17;;;14.80;99.00;;;;;;4974383;28;20045;-74
2021/07/27 08:55:56;;;;;;;3.95;2.80;;;14.80;99.10;;;;;;4974673;28;20135;-73
2021/07/27 08:58:23;;;;;;;5.00;3.30;;;14.80;99.10;;;;;;4974522;28;20019;-73
2021/07/27 09:00:50;;;;;;;4.97;2.90;;;14.70;99.00;;;;;;4974556;28;20023;-73
2021/07/27 09:03:20;;;;;;;4.60;3.40;;;14.60;99.30;;;;;;4974511;28;20022;-73
2021/07/27 09:05:51;;;;;;;5.97;3.40;;;14.60;99.20;;;;;;4974915;28;20046;-74
2021/07/27 09:08:19;;;;;;;6.63;3.13;;;14.50;99.50;;;;;;4974319;28;20768;-74
2021/07/27 09:10:46;;;;;;;4.18;3.10;;;14.40;99.60;;;;;;4974391;28;20102;-73
2021/07/27 09:13:17;;;;;;;4.22;2.88;;;14.30;99.60;;;;;;4974006;28;20079;-71
2021/07/27 09:15:46;;;;;;;5.32;2.92;;;14.30;99.80;;;;;;4974321;28;20157;-71
2021/07/27 09:18:21;;;;;;;4.82;2.60;;;14.30;99.80;;;;;;4972779;28;20026;-72
2021/07/27 09:20:50;;;;;;;6.03;2.75;;;14.30;99.80;;;;;;4974367;28;20019;-72
2021/07/27 09:23:18;;;;;;;5.90;3.28;;;14.20;99.90;;;;;;4974318;28;20177;-70
2021/07/27 09:25:54;;;;;;;5.13;3.70;;;14.20;99.90;;;;;;4972701;28;20166;-73
2021/07/27 09:28:23;;;;;;;5.95;3.47;;;14.10;99.90;;;;;;4974227;28;20143;-74
2021/07/27 09:30:56;;;;;;;6.70;2.95;;;14.10;99.90;;;;;;4974117;28;20023;-73
2021/07/27 09:33:33;;;;;;;4.25;3.28;;;14.00;99.90;;;;;;4973928;28;20046;-73
2021/07/27 09:36:01;;;;;;;4.90;2.90;;;13.90;99.90;;;;;;4974008;28;20023;-73
2021/07/27 09:38:32;;;;;;;6.75;3.30;;;13.80;99.90;;;;;;4973735;28;20023;-72
2021/07/27 09:41:04;;;;;;;;;;;13.80;99.90;;;;;;4973212;28;20023;-72
2021/07/27 09:43:32;;;;;;;3.85;3.08;;;13.70;99.90;;;;;;4972670;28;19906;-73
2021/07/27 09:46:01;;;;;;;5.38;3.08;;;13.70;99.90;;;;;;4973883;28;20039;-72
2021/07/27 09:48:30;;;;;;;6.25;3.05;;;13.60;99.90;;;;;;4973890;28;20499;-73
2021/07/27 09:51:01;;;;;;;7.25;3.92;;;13.60;99.90;;;;;;4974275;28;20082;-73
2021/07/27 09:53:29;;;;;;;4.28;3.30;;;13.60;99.90;;;;;;4976363;28;20432;-71
2021/07/27 09:55:57;;;;;;;5.72;3.38;;;13.60;99.90;;;;;;4976053;28;20113;-71
2021/07/27 09:58:27;;;;;;;7.47;3.60;;;13.50;99.90;;;;;;4977663;28;20102;-72
2021/07/27 10:00:58;;;;;;;6.10;3.40;;;13.50;99.90;;;;;;4977539;28;20027;-72
2021/07/27 10:03:54;;;;;;;4.88;3.65;;;13.50;99.90;;;;;;4977897;28;20253;-72
2021/07/27 10:06:47;;;;;;;4.72;3.47;;;13.40;99.90;;;;;;4975998;28;20467;-72
2021/07/27 10:09:24;;;;;;;5.32;3.45;;;13.40;99.90;;;;;;4967887;28;20046;-72
2021/07/27 10:11:52;;;;;;;7.15;3.95;;;13.40;99.90;;;;;;4975772;28;20055;-72
2021/07/27 10:14:20;;;;;;;5.90;3.55;;;13.40;99.90;;;;;;4976074;28;20043;-72
2021/07/27 10:16:48;;;;;;;5.53;3.55;;;13.30;99.90;;;;;;4975944;28;20476;-72
2021/07/27 10:19:18;;;;;;;5.57;3.58;;;13.30;99.90;;;;;;4977158;28;20102;-73
2021/07/27 10:21:47;;;;;;;7.13;3.63;;;13.30;99.90;;;;;;4977180;28;20029;-71
2021/07/27 10:24:23;;;;;;;4.47;3.40;;;13.30;99.90;;;;;;4977080;28;20261;-72
2021/07/27 10:26:50;;;;;;;5.57;3.72;;;13.30;99.90;;;;;;4975744;28;20093;-73
2021/07/27 10:29:31;;;;;;;5.97;3.95;;;13.30;99.90;;;;;;4975657;28;20395;-72
2021/07/27 10:32:01;;;;;;;3.92;3.50;;;13.30;99.90;;;;;;4977105;28;20511;-72
2021/07/27 10:34:35;;;;;;;6.55;3.63;;;13.30;99.90;;;;;;4975469;28;20126;-72
2021/07/27 10:37:09;;;;;;;5.00;2.92;;;13.30;99.90;;;;;;4976895;28;20085;-72
2021/07/27 10:39:53;;;;;;;4.95;2.90;;;13.30;99.90;;;;;;4976919;28;20023;-74
2021/07/27 10:42:24;;;;;;;7.35;3.45;;;13.30;99.90;;;;;;4975458;28;20488;-73
2021/07/27 10:44:52;;;;;;;5.13;3.40;;;13.30;99.90;;;;;;4975425;28;20027;-73
2021/07/27 10:47:22;;;;;;;3.67;3.35;;;13.30;99.90;;;;;;4976828;28;20399;-73
2021/07/27 10:50:03;;;;;;;4.80;3.15;;;13.30;99.90;;;;;;4975423;28;20030;-72
2021/07/27 10:52:30;;;;;;;;;;;13.30;99.90;;;;;;4975786;28;20039;-73
2021/07/27 10:54:59;;;;;;;3.50;3.10;;;13.30;99.90;;;;;;4975306;28;19910;-72
2021/07/27 10:57:35;;;;;;;4.55;3.22;;;13.20;99.90;;;;;;4975124;28;20023;-72
2021/07/27 11:00:05;;;;;;;5.10;2.95;;;13.20;99.90;;;;;;4976520;28;20034;-73
2021/07/27 11:02:34;;;;;;;4.25;2.92;;;13.10;99.90;;;;;;4974590;28;20550;-72
2021/07/27 11:05:01;;;;;;;4.22;2.97;;;13.10;99.90;;;;;;4976601;28;20034;-73
2021/07/27 11:07:36;;;;;;;4.68;3.30;;;13.20;99.90;;;;;;4975106;28;20053;-73
2021/07/27 11:10:05;;;;;;;5.35;3.50;;;13.10;99.90;;;;;;4976335;28;20023;-72
2021/07/27 11:12:34;;;;;;;5.15;3.63;;;13.10;99.90;;;;;;4976041;28;20061;-70
2021/07/27 11:15:14;;;;;;;3.78;3.10;;;13.00;99.90;;;;;;4976037;28;20023;-73
2021/07/27 11:17:48;;;;;;;5.60;3.83;;;13.00;99.90;;;;;;4976203;28;20480;-73
2021/07/27 11:20:22;;;;;;;5.70;3.97;;;12.90;99.90;;;;;;4976255;28;20041;-73
2021/07/27 11:22:57;;;;;;;4.68;3.75;;;12.90;99.90;;;;;;4976187;28;20023;-73
2021/07/27 11:25:26;;;;;;;6.65;4.47;;;12.80;99.90;;;;;;4976044;28;20114;-72
2021/07/27 11:27:55;;;;;;;4.72;3.95;;;12.70;99.90;;;;;;4974568;28;20118;-75
2021/07/27 11:30:34;;;;;;;8.75;4.53;;;12.70;99.90;;;;;;4976067;28;20534;-72
2021/07/27 11:33:12;;;;;;;5.05;4.32;;;12.60;99.90;;;;;;4975933;28;20019;-74
2021/07/27 11:35:47;;;;;;;6.32;4.60;;;12.50;99.90;;;;;;4976189;28;20014;-73
2021/07/27 11:38:34;;;;;;;4.78;4.30;;;12.40;99.90;;;;;;4974517;28;20031;-73
2021/07/27 11:41:04;;;;;;;6.03;4.22;;;12.40;99.90;;;;;;4975813;28;20440;-73
2021/07/27 11:43:39;;;;;;;4.45;4.00;;;12.30;99.90;;;;;;4975675;28;20050;-73
2021/07/27 11:46:12;;;;;;;7.45;4.13;;;12.30;99.90;;;;;;4975982;28;20483;-73
2021/07/27 11:48:41;;;;;;;4.15;3.67;;;12.40;99.90;;;;;;4974283;28;20027;-74
2021/07/27 11:51:09;;;;;;;5.95;3.90;;;12.40;99.90;;;;;;4975617;28;20031;-73
2021/07/27 11:53:39;;;;;;;5.25;3.97;;;12.40;99.90;;;;;;4975418;28;20026;-74
2021/07/27 11:56:12;;;;;;;5.00;3.70;;;12.40;99.90;;;;;;4974451;28;20023;-74
2021/07/27 11:58:39;;;;;;;7.18;4.72;;;12.30;99.90;;;;;;4974004;28;20094;-73
2021/07/27 12:01:08;;;;;;;7.32;4.63;;;12.20;99.90;;;;;;4974021;28;20122;-74
2021/07/27 12:03:35;;;;;;;5.95;4.10;;;12.20;99.90;;;;;;4975246;28;20081;-74
2021/07/27 12:06:16;;;;;;;5.38;4.05;;;12.10;99.90;;;;;;4975332;28;20031;-73
2021/07/27 12:08:43;;;;;;;4.20;3.80;;;12.10;99.90;;;;;;4975194;28;20054;-73
2021/07/27 12:11:11;;;;;;;4.90;3.72;;;12.10;99.90;;;;;;4975232;28;20031;-73
2021/07/27 12:13:38;;;;;;;6.38;3.88;;;12.00;99.90;;;;;;4973132;28;20094;-73
2021/07/27 12:16:06;;;;;;;4.20;3.90;;;12.10;99.90;;;;;;4973634;28;20084;-73
2021/07/27 12:18:33;;;;;;;5.65;4.43;;;12.10;99.90;;;;;;4973832;28;20498;-73
2021/07/27 12:21:01;;;;;;;5.10;4.50;;;12.10;99.90;;;;;;4973791;28;20038;-73
2021/07/27 12:23:28;;;;;;;4.82;4.43;;;12.00;99.90;;;;;;4975125;28;20030;-72
2021/07/27 12:25:56;;;;;;;5.53;4.05;;;12.00;99.90;;;;;;4973667;28;20030;-73
2021/07/27 12:28:23;;;;;;;4.80;3.70;;;12.00;99.90;;;;;;4974982;28;20031;-73
2021/07/27 12:30:50;;;;;;;4.00;3.70;;;12.00;99.90;;;;;;4974794;28;20029;-73
2021/07/27 12:33:18;;;;;;;5.53;4.05;;;12.00;99.90;;;;;;4975405;28;20104;-73
2021/07/27 12:35:45;;;;;;;4.40;3.92;;;11.90;99.90;;;;;;4975451;28;20467;-73
2021/07/27 12:38:12;;;;;;;7.20;4.50;;;11.90;99.90;;;;;;4975045;28;20023;-72
2021/07/27 12:40:40;;;;;;;4.28;3.88;;;11.90;99.90;;;;;;4974699;28;20050;-73
2021/07/27 12:43:07;;;;;;;5.45;4.40;;;11.90;99.90;;;;;;4974867;28;20025;-72
2021/07/27 12:45:34;;;;;;;6.80;4.55;;;11.80;99.90;;;;;;4973173;28;20027;-73
2021/07/27 12:48:02;;;;;;;4.90;4.50;;;11.80;99.90;;;;;;4973280;28;20034;-73
2021/07/27 12:50:29;;;;;;;8.35;4.40;;;11.70;99.90;;;;;;4974481;28;20102;-72
2021/07/27 12:52:57;;;;;;;5.32;4.53;;;11.70;99.90;;;;;;4973346;28;20113;-73
2021/07/27 12:55:24;;;;;;;5.10;4.53;;;11.70;99.90;;;;;;4973865;28;20035;-73
2021/07/27 12:57:51;;;;;;;8.38;5.03;;;11.80;99.90;;;;;;4974464;28;20046;-73
2021/07/27 13:00:19;;;;;;;5.40;4.30;;;11.80;99.90;;;;;;4974398;28;20027;-73
2021/07/27 13:02:46;;;;;;;5.05;4.35;;;11.80;99.90;;;;;;4974370;28;20533;-73
2021/07/27 13:05:14;;;;;;;6.78;4.72;;;11.70;99.90;;;;;;4974350;28;20026;-74
2021/07/27 13:07:41;;;;;;;7.90;4.10;;;11.70;99.90;;;;;;4974291;28;20104;-74
2021/07/27 13:10:09;;;;;;;4.90;4.50;;;11.70;99.90;;;;;;4972998;28;20031;-73
2021/07/27 13:12:36;;;;;;;4.30;4.00;;;11.60;99.90;;;;;;4974015;28;20563;-73
2021/07/27 13:15:04;;;;;;;5.85;4.50;;;11.60;99.90;;;;;;4974449;28;20379;-74
2021/07/27 13:17:31;;;;;;;5.75;4.45;;;11.60;99.90;;;;;;4972875;28;20019;-74